Tuktoyaktuk, Canada
Current Conditions -  °F | °C
As of 5:00 PM on Friday 24 Oct 2014 (Local Time) from CYUB Reporting Station
Light Snow Light Snow  
Wind Chill:   Ceiling: 3000
Heat Index: 12°   Visibility: 10mi
Dew Point:   Wind: 8mph
Humidity: 79%   Direction: 220°SW
Pressure: 29.83"   Gusts: NA
Location:  69.45°N, 133.03°W
Report Text: CYUB 242300Z 22007KT 10SM -SN FEW005 BKN030 M11/M14 A2983 RMKSC1SC7 SLP104
Loading
Personal Weather Stations






























Interactive Weather Map
Tropical Storm Tracking
New forecast layout! Learn more

10-Day Weather Forecast

Advertisements
Track Severe Weather on mobile